• Join FlightAware (Why Join?)
  • Login
  • US Flag 
Rudolph Flight #1: Arrived! 
08:39AM EST


 

Airport Tracker/Info


-or-


 

Live Flight TrackerFlight Track Log ✈ N919HP ✈ 24-Jun-2013 ✈ KSUT - KMTN

Flight Track Log - Related Links

Times and Time Zones

All times are in EDT time to prevent confusion due to time zone crossing. See the N919HP flight status page for this flight to view local times or setup timezone preferences in your user account.

Time Position Orientation Groundspeed Altitude Reporting Facility
EDT Latitude Longitude Course Direction KTS MPH feet Rate Location/Type
06:16PM 33.8919 -78.0511 22° Northeast 162 186 4,000  Level Washington Center
06:17PM 33.9403 -78.0400 11° North 128 147 5,800 1,560 Climbing Washington Center
06:18PM 33.9822 -78.0286 13° North 142 163 7,200 1,500 Climbing Washington Center
06:19PM 34.0369 -78.0103 16° North 170 196 8,800 1,380 Climbing Washington Center
06:20PM 34.0956 -77.9894 16° North 196 226 10,000 1,380 Climbing Washington Center
06:21PM 34.3298 -77.8767 22° Northeast  Level FlightAware Approximate
06:21PM 34.1650 -77.9614 18° North 229 264 11,700  Level Washington Center
06:22PM 34.2303 -77.9381 16° North 229 264 12,800 1,020 Climbing Washington Center
06:23PM 34.2931 -77.9322 North 234 269 13,800 1,080 Climbing Washington Center
06:24PM 34.3619 -77.9242 North 239 275 15,000 1,140 Climbing Washington Center
06:25PM 34.4269 -77.9108 10° North 239 275 16,200 960 Climbing Washington Center
06:26PM 34.4958 -77.9028 North 239 275 17,000 360 Climbing Washington Center
06:27PM 34.5711 -77.8947 North 250 288 17,000 180 Level Washington Center
06:28PM 34.6528 -77.8844 North 271 312 17,400 840 Climbing Washington Center
06:29PM 34.7239 -77.8714 North 271 312 18,700 1,320 Climbing Washington Center
06:30PM 34.7908 -77.8656 North 258 297 20,000 1,500 Climbing Washington Center
06:31PM 34.8514 -77.8572 North 226 260 21,800 1,080 Climbing Washington Center
06:32PM 34.9100 -77.8486 North 205 236 22,200 360 Climbing Washington Center
06:33PM 34.9769 -77.8378 North 212 244 22,600 420 Climbing Washington Center
06:34PM 35.0439 -77.8269 North 231 266 23,100 480 Climbing Washington Center
06:35PM 35.1131 -77.8189 North 237 273 23,600 540 Climbing Washington Center
06:36PM 35.1819 -77.8106 North 242 278 24,200 540 Climbing Washington Center
06:37PM 35.2531 -77.8022 North 242 278 24,700 360 Climbing Washington Center
06:38PM 35.3222 -77.7914 North 242 278 25,000 120 Climbing Washington Center
06:39PM 35.3975 -77.7833 North 258 297 25,000  Level Washington Center
06:40PM 35.4747 -77.7728 North 264 304 25,000  Level Washington Center
06:41PM 35.5542 -77.7622 North 276 318 25,000  Level Washington Center
06:42PM 35.6339 -77.7514 North 276 318 25,000  Level Washington Center
06:43PM 35.7133 -77.7408 North 276 318 25,000  Level Washington Center
06:44PM 35.7906 -77.7303 North 276 318 25,000  Level Washington Center
06:45PM 35.8700 -77.7194 North 276 318 25,000  Level Washington Center
06:46PM 35.9475 -77.7114 North 276 318 25,000  Level Washington Center
06:47PM 36.0250 -77.6953 10° North 276 318 25,000  Level Washington Center
06:48PM 36.1025 -77.6744 12° North 276 318 25,000  Level Washington Center
06:49PM 36.1800 -77.6583 10° North 276 318 25,000  Level Washington Center
06:50PM 36.2575 -77.6397 11° North 276 318 25,000  Level Washington Center
06:51PM 36.3372 -77.6161 13° North 281 323 25,000  Level Washington Center
06:52PM 36.4147 -77.5975 11° North 281 323 25,000  Level Washington Center
06:53PM 36.4839 -77.5786 12° North 275 316 25,000  Level Washington Center
06:54PM 36.5592 -77.5597 11° North 281 323 25,000  Level Washington Center
06:55PM 36.6472 -77.5386 11° North 281 323 25,000  Level Washington Center
06:56PM 36.7247 -77.5200 11° North 281 323 25,000  Level Washington Center
06:57PM 36.8022 -77.4986 12° North 281 323 25,000  Level Washington Center
06:58PM 36.8819 -77.4797 11° North 281 323 25,000  Level Washington Center
06:59PM 36.9594 -77.4608 11° North 281 323 25,000  Level Washington Center
07:00PM 37.0389 -77.4392 12° North 281 323 25,000 -120 Level Washington Center
07:01PM 37.1186 -77.4178 12° North 281 323 24,800 -480 Descending Washington Center
07:02PM 37.2003 -77.3989 10° North 281 323 24,100 -720 Descending Washington Center
07:03PM 37.2839 -77.3772 12° North 292 336 23,500 -660 Descending Washington Center
07:04PM 37.3700 -77.3506 14° North 299 344 22,800 -660 Descending Washington Center
07:05PM 37.4536 -77.3264 13° North 299 344 22,200 -660 Descending Washington Center
07:06PM 37.5375 -77.2994 14° North 299 344 21,500 -720 Descending Washington Center
07:07PM 37.6192 -77.2725 15° North 299 344 20,900 -600 Descending Washington Center
07:08PM 37.6989 -77.2428 16° North 299 344 20,400 -600 Descending Washington Center
07:09PM 37.7744 -77.2050 22° Northeast 299 344 19,700 -780 Descending Washington Center
07:10PM 37.8522 -77.1672 21° North 299 344 18,900 -1,080 Descending Washington Center
07:11PM 37.9339 -77.1294 20° North 299 344 17,600 -960 Descending Washington Center
07:12PM 38.0158 -77.0836 24° Northeast 309 356 17,000 -360 Descending Washington Center
07:13PM 38.0753 -77.0108 44° Northeast 298 343 17,000  Level Washington Center
07:14PM 38.1303 -76.9406 45° Northeast 285 328 17,000 -480 Level Washington Center
07:15PM 38.1872 -76.8650 46° Northeast 280 322 16,100 -1,260 Descending Washington Center
07:16PM 38.2467 -76.7842 47° Northeast 295 339 14,600 -1,380 Descending Washington Center
07:17PM 38.2972 -76.7161 47° Northeast 307 353 13,400 -1,500 Descending Washington Center
07:18PM 38.3625 -76.6378 43° Northeast 314 361 11,800 -1,680 Descending Washington Center
07:19PM 38.4236 -76.5589 45° Northeast 311 358 10,300 -1,560 Descending Washington Center
07:20PM 38.4806 -76.4803 47° Northeast 310 357 8,700 -1,500 Descending Washington Center
07:21PM 38.5353 -76.4092 45° Northeast 301 346 7,400 -1,500 Descending Washington Center
07:22PM 38.6025 -76.3169 47° Northeast 297 342 5,600 -1,200 Descending Washington Center
07:23PM 38.6758 -76.2911 15° North 274 315 4,900 -600 Descending Washington Center
07:24PM 38.7506 -76.3103 349° North 266 306 4,400 -900 Descending Washington Center
07:25PM 38.8172 -76.3244 351° North 266 306 3,100 -960 Descending Washington Center
07:26PM 38.9069 -76.3386 353° North 282 325 2,600 -420 Descending Washington Center
07:28PM 39.0500 -76.3500 356° North 264 304 2,000 -240 Descending Potomac TRACON
07:29PM 39.1167 -76.3500 360° North 265 305 2,000  Level Potomac TRACON
07:30PM 39.1833 -76.3500 360° North 221 254 2,000 -60 Level Potomac TRACON
07:31PM 39.2333 -76.3500 360° North 169 194 1,900 -480 Descending Potomac TRACON
07:32PM 39.2833 -76.3500 360° North 135 155 1,100 -660 Descending Potomac TRACON
07:33PM 39.3000 -76.3833 303° West 132 152 600 -540 Descending Potomac TRACON
07:36PM 39.3167 -76.4000 142° Southeast  Level FlightAware Approximate
07:43PM 39.3257 -76.4138 142° Southeast  Level Estimated
07:44PM 39.3257 -76.4138 142° Southeast  Level Estimated
07:45PM 39.3257 -76.4138 142° Southeast  Level Estimated